Time;durP1;ratioP1;P1;durP2;ratioP2;P2;SDS_P1;SDS_P2;PMS_P1;PMS_P2;Temp;Humidity;BMP_temperature;BMP_pressure;BME280_temperature;BME280_humidity;BME280_pressure;Samples;Min_cycle;Max_cycle;Signal;HPM_P1;HPM_P2
2022/02/02 00:01:33;;;;;;;10.15;4.50;;;8.80;99.90;;;;;;5026045;28;20235;-65
2022/02/02 00:04:00;;;;;;;25.73;6.70;;;8.70;99.90;;;;;;5016576;28;20221;-65
2022/02/02 00:06:33;;;;;;;13.38;5.05;;;8.70;99.90;;;;;;5020880;28;20229;-65
2022/02/02 00:09:03;;;;;;;20.60;8.23;;;8.70;99.90;;;;;;5025206;28;20297;-64
2022/02/02 00:14:29;;;;;;;17.95;6.15;;;8.70;99.90;;;;;;5020981;28;20233;-64
2022/02/02 00:17:00;;;;;;;17.83;5.35;;;8.70;99.90;;;;;;5027429;28;20211;-65
2022/02/02 00:19:38;;;;;;;18.35;6.30;;;8.70;99.90;;;;;;5028661;28;21031;-65
2022/02/02 00:22:10;;;;;;;17.80;5.95;;;8.70;99.90;;;;;;5026133;28;20282;-65
2022/02/02 00:24:51;;;;;;;26.02;5.18;;;8.70;99.90;;;;;;5019381;28;20330;-64
2022/02/02 00:27:21;;;;;;;16.70;6.05;;;8.70;99.90;;;;;;5018839;28;20236;-64
2022/02/02 00:29:54;;;;;;;17.38;5.00;;;8.70;99.90;;;;;;5025031;28;20248;-64
2022/02/02 00:32:31;;;;;;;17.05;5.43;;;8.70;99.90;;;;;;5025153;28;20261;-65
2022/02/02 00:34:59;;;;;;;12.15;5.03;;;8.70;99.90;;;;;;5022993;28;20573;-65
2022/02/02 00:37:26;;;;;;;16.42;4.05;;;8.70;99.90;;;;;;5019957;28;20255;-64
2022/02/02 00:39:52;;;;;;;19.50;5.30;;;8.70;99.90;;;;;;5021478;28;20234;-65
2022/02/02 00:42:19;;;;;;;16.35;6.13;;;8.70;99.90;;;;;;5025566;28;20225;-64
2022/02/02 00:44:52;;;;;;;16.70;6.80;;;8.70;99.90;;;;;;5024001;28;20231;-65
2022/02/02 00:47:24;;;;;;;16.35;4.78;;;8.70;99.90;;;;;;5018772;28;20231;-65
2022/02/02 00:49:51;;;;;;;14.10;4.60;;;8.70;99.90;;;;;;5019312;28;20228;-64
2022/02/02 00:52:21;;;;;;;19.95;6.78;;;8.70;99.90;;;;;;5025164;28;20239;-64
2022/02/02 00:54:48;;;;;;;19.25;5.80;;;8.60;99.90;;;;;;5024152;28;20226;-64
2022/02/02 00:57:15;;;;;;;14.23;5.30;;;8.60;99.90;;;;;;5023612;28;20233;-65
2022/02/02 00:59:41;;;;;;;20.92;5.68;;;8.60;99.90;;;;;;5011282;28;20221;-65
2022/02/02 01:02:10;;;;;;;15.25;5.93;;;8.60;99.90;;;;;;5024967;28;20694;-65
2022/02/02 01:04:38;;;;;;;17.42;5.82;;;8.60;99.90;;;;;;5025714;28;20224;-65
2022/02/02 01:07:12;;;;;;;14.07;4.88;;;8.60;99.90;;;;;;5019433;28;20229;-64
2022/02/02 01:09:47;;;;;;;17.42;5.32;;;8.60;99.90;;;;;;5018202;28;20305;-65
2022/02/02 01:18:11;;;;;;;27.88;10.57;;;8.60;99.90;;;;;;5027400;28;20225;-64
2022/02/02 01:20:51;;;;;;;24.08;8.32;;;8.60;99.90;;;;;;5024349;28;20301;-64
2022/02/02 01:28:48;;;;;;;19.80;6.20;;;8.60;99.90;;;;;;5043120;28;20243;-65
2022/02/02 01:31:16;;;;;;;21.70;6.68;;;8.60;99.90;;;;;;5023493;28;20695;-62
2022/02/02 01:33:43;;;;;;;18.30;8.00;;;8.60;99.90;;;;;;5038383;28;20242;-64
2022/02/02 01:36:11;;;;;;;27.40;7.45;;;8.60;99.90;;;;;;5038172;28;20263;-64
2022/02/02 01:38:38;;;;;;;24.15;8.20;;;8.60;99.90;;;;;;5036448;28;20236;-63
2022/02/02 01:41:09;;;;;;;17.08;5.38;;;8.70;99.90;;;;;;5046846;28;20290;-64
2022/02/02 01:43:41;;;;;;;20.70;5.45;;;8.70;99.90;;;;;;5050682;28;20572;-64
2022/02/02 01:46:12;;;;;;;14.68;6.95;;;8.70;99.90;;;;;;5055239;28;20230;-64
2022/02/02 01:48:45;;;;;;;14.75;6.25;;;8.70;99.90;;;;;;5051631;28;20238;-64
2022/02/02 01:54:52;;;;;;;21.05;5.40;;;8.70;99.90;;;;;;5131049;27;20562;-63
2022/02/02 01:57:39;;;;;;;19.25;4.88;;;8.70;99.90;;;;;;5126470;27;20536;-64
2022/02/02 02:00:08;;;;;;;12.15;5.55;;;8.60;99.90;;;;;;5139210;27;20218;-65
2022/02/02 02:02:35;;;;;;;22.58;5.35;;;8.70;99.90;;;;;;5151426;27;20217;-64
2022/02/02 02:05:02;;;;;;;22.15;5.80;;;8.60;99.90;;;;;;5149392;27;20678;-65
2022/02/02 02:07:29;;;;;;;23.85;6.93;;;8.50;99.90;;;;;;5150860;27;20558;-65
2022/02/02 02:09:59;;;;;;;13.98;6.20;;;8.40;99.90;;;;;;5142310;27;20579;-64
2022/02/02 02:12:36;;;;;;;21.40;5.18;;;8.40;99.90;;;;;;5150791;27;21033;-64
2022/02/02 02:15:06;;;;;;;13.07;4.63;;;8.40;99.90;;;;;;5150772;27;20237;-63
2022/02/02 02:17:33;;;;;;;24.40;6.35;;;8.40;99.90;;;;;;5149915;27;20220;-63
2022/02/02 02:19:59;;;;;;;22.20;4.57;;;8.50;99.90;;;;;;5150960;27;20236;-64
2022/02/02 02:22:32;;;;;;;13.85;5.07;;;8.50;99.90;;;;;;5150440;27;20341;-64
2022/02/02 02:24:59;;;;;;;19.15;5.97;;;8.60;99.90;;;;;;5150806;27;20242;-64
2022/02/02 02:27:26;;;;;;;17.13;5.57;;;8.60;99.90;;;;;;5149231;27;20217;-64
2022/02/02 02:30:09;;;;;;;11.15;4.47;;;8.70;99.90;;;;;;5150067;27;20351;-63
2022/02/02 02:35:46;;;;;;;24.27;6.13;;;8.60;99.90;;;;;;5115107;27;20329;-63
2022/02/02 02:57:41;;;;;;;13.88;5.50;;;8.40;99.90;;;;;;5088171;27;20252;-64
2022/02/02 03:00:25;;;;;;;15.98;5.03;;;8.50;99.90;;;;;;5157565;27;20224;-65
2022/02/02 03:30:53;;;;;;;31.60;7.90;;;8.60;99.90;;;;;;5117208;27;20679;-64
2022/02/02 03:55:29;;;;;;;20.67;6.93;;;8.70;99.90;;;;;;5134438;27;20229;-64
2022/02/02 03:58:12;;;;;;;23.52;7.10;;;8.70;99.90;;;;;;5135403;27;20221;-65
2022/02/02 04:00:55;;;;;;;23.63;8.25;;;8.70;99.90;;;;;;5128305;27;20331;-65
2022/02/02 04:03:41;;;;;;;21.75;8.27;;;8.70;99.90;;;;;;5134338;27;20688;-64
2022/02/02 04:06:11;;;;;;;27.58;9.32;;;8.70;99.90;;;;;;5135135;27;20232;-64
2022/02/02 04:08:39;;;;;;;19.95;6.95;;;8.70;99.90;;;;;;5126946;27;20219;-65
2022/02/02 04:11:14;;;;;;;20.17;6.90;;;8.70;99.90;;;;;;5121505;27;20288;-65
2022/02/02 04:39:08;;;;;;;20.63;7.30;;;8.70;99.90;;;;;;5133920;27;20262;-64
2022/02/02 04:55:27;;;;;;;16.52;6.45;;;8.60;99.90;;;;;;5144887;27;20370;-63
2022/02/02 04:58:12;;;;;;;22.17;6.38;;;8.70;99.90;;;;;;5133959;27;20229;-64
2022/02/02 05:03:45;;;;;;;15.35;8.18;;;8.70;99.90;;;;;;5099049;27;20644;-63
2022/02/02 05:06:20;;;;;;;24.50;5.30;;;8.70;99.90;;;;;;5118699;27;20225;-62
2022/02/02 05:08:55;;;;;;;18.83;6.38;;;8.70;99.90;;;;;;5120810;27;20241;-65
2022/02/02 05:11:49;;;;;;;14.88;6.22;;;8.70;99.90;;;;;;5132955;27;20618;-62
2022/02/02 05:17:19;;;;;;;24.23;5.85;;;8.60;99.90;;;;;;5114985;27;20217;-64
2022/02/02 05:53:03;;;;;;;16.63;5.10;;;8.80;99.90;;;;;;5100621;27;20224;-62
2022/02/02 05:55:35;;;;;;;15.85;4.32;;;8.80;99.90;;;;;;5121891;27;20292;-64
2022/02/02 05:58:02;;;;;;;11.18;4.07;;;8.80;99.90;;;;;;5111861;28;20215;-64
2022/02/02 06:00:29;;;;;;;13.35;5.68;;;8.70;99.90;;;;;;5119954;27;20295;-63
2022/02/02 06:03:01;;;;;;;12.80;4.18;;;8.70;99.90;;;;;;5112283;28;20237;-64
2022/02/02 06:05:29;;;;;;;14.65;5.85;;;8.60;99.90;;;;;;5113021;28;20227;-64
2022/02/02 06:07:57;;;;;;;14.43;5.40;;;8.60;99.90;;;;;;5111194;28;20223;-64
2022/02/02 06:10:25;;;;;;;8.65;4.28;;;8.60;99.90;;;;;;5110411;27;20311;-63
2022/02/02 06:12:55;;;;;;;18.50;6.90;;;8.60;99.90;;;;;;5110887;28;20301;-64
2022/02/02 06:15:23;;;;;;;17.02;6.20;;;8.50;99.90;;;;;;5111585;27;20295;-64
2022/02/02 06:17:52;;;;;;;20.05;4.97;;;8.50;99.90;;;;;;5110940;27;20223;-63
2022/02/02 06:20:20;;;;;;;17.80;5.75;;;8.50;99.90;;;;;;5111306;27;20322;-63
2022/02/02 06:22:53;;;;;;;8.50;4.18;;;8.50;99.90;;;;;;5111112;27;20646;-62
2022/02/02 06:25:23;;;;;;;13.05;5.22;;;8.40;99.90;;;;;;5111970;28;20613;-62
2022/02/02 06:27:59;;;;;;;13.02;5.05;;;8.50;99.90;;;;;;5112206;28;20218;-63
2022/02/02 06:30:27;;;;;;;16.92;6.25;;;8.50;99.90;;;;;;5112510;28;20292;-64
2022/02/02 06:33:05;;;;;;;16.15;7.38;;;8.50;99.90;;;;;;5111690;27;20298;-63
2022/02/02 06:35:33;;;;;;;17.77;7.82;;;8.50;99.90;;;;;;5099946;28;20229;-63
2022/02/02 06:38:00;;;;;;;18.55;7.93;;;8.50;99.90;;;;;;5099519;28;20233;-64
2022/02/02 06:40:29;;;;;;;16.13;6.70;;;8.50;99.90;;;;;;5115082;28;20581;-62
2022/02/02 06:42:58;;;;;;;18.77;6.15;;;8.50;99.90;;;;;;5115431;27;20303;-62
2022/02/02 06:45:25;;;;;;;21.88;7.45;;;8.50;99.90;;;;;;5109020;27;20219;-63
2022/02/02 06:47:52;;;;;;;16.52;5.05;;;8.40;99.90;;;;;;5102265;28;20237;-63
2022/02/02 06:50:24;;;;;;;12.13;4.60;;;8.50;99.90;;;;;;5116031;28;20246;-63
2022/02/02 06:53:05;;;;;;;17.17;7.65;;;8.50;99.90;;;;;;5115589;27;20235;-63
2022/02/02 06:55:46;;;;;;;20.90;6.40;;;8.50;99.90;;;;;;5115761;27;20313;-64
2022/02/02 06:58:25;;;;;;;19.80;8.88;;;8.50;99.90;;;;;;5115963;28;20223;-64
2022/02/02 07:01:05;;;;;;;27.02;10.43;;;8.50;99.90;;;;;;5101970;28;20261;-63
2022/02/02 07:03:55;;;;;;;27.88;7.30;;;8.50;99.90;;;;;;5115998;27;20226;-64
2022/02/02 07:06:36;;;;;;;18.83;6.20;;;8.50;99.90;;;;;;5115416;28;20222;-63
2022/02/02 07:09:23;;;;;;;23.90;7.50;;;8.60;99.90;;;;;;5094559;28;20223;-64
2022/02/02 07:12:01;;;;;;;17.30;5.82;;;8.70;99.90;;;;;;5093863;28;20239;-63
2022/02/02 07:14:43;;;;;;;17.10;5.10;;;8.70;99.90;;;;;;5094961;28;20655;-64
2022/02/02 07:17:29;;;;;;;16.98;7.40;;;8.70;99.90;;;;;;5094597;28;20673;-63
2022/02/02 07:20:07;;;;;;;15.77;5.78;;;8.70;99.90;;;;;;5095143;28;20223;-63
2022/02/02 07:23:05;;;;;;;20.90;6.45;;;8.70;99.90;;;;;;5094920;28;20225;-63
2022/02/02 07:26:04;;;;;;;16.88;5.50;;;8.80;99.90;;;;;;5094587;28;20601;-63
2022/02/02 07:28:38;;;;;;;14.18;5.07;;;8.90;99.90;;;;;;5094660;28;20224;-64
2022/02/02 07:31:21;;;;;;;16.08;7.25;;;8.90;99.90;;;;;;5094834;28;20235;-64
2022/02/02 07:33:53;;;;;;;18.70;6.25;;;8.90;99.90;;;;;;5095221;28;20287;-62
2022/02/02 07:36:29;;;;;;;14.80;5.75;;;8.90;99.90;;;;;;5094706;28;20224;-63
2022/02/02 07:39:03;;;;;;;16.25;5.03;;;8.90;99.90;;;;;;5094425;28;20219;-62
2022/02/02 07:41:33;;;;;;;12.52;5.68;;;8.80;99.90;;;;;;5094666;28;20227;-63
2022/02/02 07:44:07;;;;;;;17.15;5.60;;;8.80;99.90;;;;;;5094325;28;20564;-63
2022/02/02 07:46:37;;;;;;;15.27;7.63;;;8.90;99.90;;;;;;5094706;28;20302;-63
2022/02/02 07:49:08;;;;;;;12.88;5.40;;;8.90;99.90;;;;;;5094350;28;20348;-63
2022/02/02 07:51:38;;;;;;;17.90;8.23;;;8.90;99.90;;;;;;5094423;28;20632;-63
2022/02/02 07:54:09;;;;;;;13.13;5.03;;;8.90;99.90;;;;;;5093906;28;20692;-63
2022/02/02 07:56:42;;;;;;;21.23;4.63;;;8.80;99.90;;;;;;5094712;28;20231;-64
2022/02/02 07:59:17;;;;;;;15.90;4.57;;;8.90;99.90;;;;;;5093973;28;20253;-64
2022/02/02 08:01:47;;;;;;;8.48;4.57;;;8.90;99.90;;;;;;5094297;28;20247;-64
2022/02/02 08:04:16;;;;;;;13.50;4.95;;;8.90;99.90;;;;;;5094042;28;20302;-64
2022/02/02 08:06:49;;;;;;;16.58;4.18;;;8.90;99.90;;;;;;5094336;28;20761;-62
2022/02/02 08:09:29;;;;;;;16.70;5.53;;;8.90;99.90;;;;;;5093869;28;20563;-63
2022/02/02 08:11:57;;;;;;;16.27;5.43;;;8.90;99.90;;;;;;5093919;28;20285;-63
2022/02/02 08:14:25;;;;;;;12.00;4.22;;;8.80;99.90;;;;;;5093987;28;20226;-63
2022/02/02 08:16:53;;;;;;;13.38;4.25;;;8.80;99.90;;;;;;5094249;28;20298;-63
2022/02/02 08:19:22;;;;;;;10.27;4.70;;;8.90;99.90;;;;;;5093557;28;20232;-64
2022/02/02 08:21:48;;;;;;;11.27;4.80;;;8.90;99.90;;;;;;5094007;28;20569;-64
2022/02/02 08:24:17;;;;;;;16.10;4.38;;;9.00;99.90;;;;;;5093503;28;20237;-63
2022/02/02 08:26:45;;;;;;;16.73;4.78;;;8.90;99.90;;;;;;5093914;28;20277;-64
2022/02/02 08:29:11;;;;;;;15.68;3.83;;;8.90;99.90;;;;;;5093699;28;20561;-64
2022/02/02 08:31:39;;;;;;;11.68;4.05;;;8.80;99.90;;;;;;5093586;28;20228;-63
2022/02/02 08:34:11;;;;;;;15.82;4.90;;;8.70;99.90;;;;;;5093415;28;20227;-63
2022/02/02 08:36:40;;;;;;;12.93;4.07;;;8.70;99.90;;;;;;5093708;28;20219;-64
2022/02/02 08:39:18;;;;;;;9.52;4.40;;;8.80;99.90;;;;;;5093451;28;20313;-64
2022/02/02 08:41:48;;;;;;;10.13;5.18;;;8.80;99.90;;;;;;5093588;28;20245;-63
2022/02/02 08:44:20;;;;;;;9.27;4.50;;;8.80;99.90;;;;;;5093267;28;20222;-63
2022/02/02 08:46:56;;;;;;;13.77;6.13;;;8.80;99.90;;;;;;5093766;28;20291;-64
2022/02/02 08:49:24;;;;;;;10.88;3.90;;;8.70;99.90;;;;;;5093073;28;20222;-64
2022/02/02 08:51:51;;;;;;;16.48;5.10;;;8.70;99.90;;;;;;5093374;28;20237;-64
2022/02/02 08:54:27;;;;;;;13.45;4.55;;;8.70;99.90;;;;;;5092804;28;20242;-64
2022/02/02 08:59:51;;;;;;;9.95;4.53;;;8.70;99.90;;;;;;5093878;28;20329;-63
2022/02/02 09:02:26;;;;;;;12.40;4.00;;;8.70;99.90;;;;;;5093167;28;20320;-64
2022/02/02 09:07:39;;;;;;;13.15;4.97;;;8.70;99.90;;;;;;5092914;28;20233;-63
2022/02/02 09:10:10;;;;;;;10.45;4.22;;;8.70;99.90;;;;;;5093307;28;20230;-63
2022/02/02 09:32:08;;;;;;;10.05;3.70;;;8.70;99.90;;;;;;5093480;28;20296;-63
2022/02/02 09:34:35;;;;;;;10.75;3.25;;;8.70;99.90;;;;;;5092962;28;20227;-63
2022/02/02 09:37:03;;;;;;;8.52;3.17;;;8.70;99.90;;;;;;5092798;28;20222;-64
2022/02/02 09:39:36;;;;;;;6.72;3.50;;;8.70;99.90;;;;;;5092923;28;20233;-64
2022/02/02 09:42:05;;;;;;;9.00;2.58;;;8.70;99.90;;;;;;5092882;28;20635;-64
2022/02/02 09:44:37;;;;;;;7.40;2.80;;;8.70;99.90;;;;;;5092903;28;20606;-63
2022/02/02 09:47:10;;;;;;;9.20;3.25;;;8.70;99.90;;;;;;5092479;28;20296;-63
2022/02/02 09:49:45;;;;;;;5.03;2.70;;;8.70;99.90;;;;;;5092906;28;20231;-62
2022/02/02 09:52:17;;;;;;;8.55;3.45;;;8.70;99.90;;;;;;5092366;28;20235;-63
2022/02/02 09:54:56;;;;;;;6.80;3.15;;;8.70;99.90;;;;;;5092570;28;20689;-63
2022/02/02 10:00:20;;;;;;;16.25;4.72;;;8.80;99.90;;;;;;5092218;28;20565;-63
2022/02/02 10:05:33;;;;;;;5.93;2.53;;;8.90;99.90;;;;;;5090583;28;20223;-63
2022/02/02 10:08:35;;;;;;;5.63;2.80;;;9.00;99.90;;;;;;5092653;28;20230;-63
2022/02/02 10:11:09;;;;;;;7.43;2.78;;;8.90;99.90;;;;;;5092375;28;20251;-64
2022/02/02 10:14:02;;;;;;;15.30;4.30;;;9.00;99.90;;;;;;5092736;28;20223;-62
2022/02/02 10:16:29;;;;;;;11.02;4.75;;;9.00;99.90;;;;;;5096744;28;20219;-63
2022/02/02 10:19:14;;;;;;;11.70;3.60;;;9.00;99.90;;;;;;5096382;28;20219;-63
2022/02/02 10:21:41;;;;;;;7.43;3.47;;;9.00;99.90;;;;;;5095949;28;20227;-62
2022/02/02 10:24:09;;;;;;;6.82;2.75;;;9.00;99.90;;;;;;5096478;28;20226;-63
2022/02/02 10:26:43;;;;;;;9.23;3.05;;;9.10;99.90;;;;;;5096098;28;20573;-63
2022/02/02 10:29:12;;;;;;;5.97;3.50;;;9.00;99.90;;;;;;5096525;28;20219;-64
2022/02/02 10:31:40;;;;;;;11.77;3.78;;;9.10;99.90;;;;;;5095932;28;20243;-63
2022/02/02 10:34:12;;;;;;;12.05;2.50;;;9.10;99.90;;;;;;5096474;28;20228;-63
2022/02/02 10:36:39;;;;;;;8.60;4.15;;;9.10;99.90;;;;;;5095838;28;20356;-63
2022/02/02 10:39:11;;;;;;;11.07;4.50;;;9.10;99.90;;;;;;5096309;28;20216;-63
2022/02/02 10:41:49;;;;;;;7.68;3.65;;;9.20;99.90;;;;;;5095664;28;20235;-63
2022/02/02 10:44:25;;;;;;;9.25;3.05;;;9.20;99.90;;;;;;5096144;28;20752;-63
2022/02/02 10:46:57;;;;;;;12.00;2.85;;;9.30;99.90;;;;;;5095738;28;20223;-63
2022/02/02 10:49:32;;;;;;;7.47;3.30;;;9.30;99.90;;;;;;5095909;28;20220;-63
2022/02/02 10:52:05;;;;;;;6.82;3.17;;;9.30;99.90;;;;;;5095422;28;20224;-63
2022/02/02 10:54:41;;;;;;;10.10;3.40;;;9.30;99.90;;;;;;5095776;28;20224;-63
2022/02/02 10:57:15;;;;;;;7.85;2.42;;;9.40;99.90;;;;;;5095814;28;20216;-63
2022/02/02 11:08:03;;;;;;;9.40;3.28;;;9.40;99.80;;;;;;5096083;28;20284;-62
2022/02/02 11:10:33;;;;;;;10.25;3.05;;;9.40;99.30;;;;;;5095137;28;20234;-62
2022/02/02 11:13:01;;;;;;;7.22;3.10;;;9.30;99.10;;;;;;5095531;28;20289;-63
2022/02/02 11:15:41;;;;;;;9.73;3.53;;;9.30;99.00;;;;;;5095046;28;20566;-62
2022/02/02 11:18:15;;;;;;;9.88;4.25;;;9.30;99.10;;;;;;5095087;28;20228;-62
2022/02/02 11:20:42;;;;;;;5.97;2.90;;;9.40;99.30;;;;;;5095381;28;20557;-63
2022/02/02 11:23:10;;;;;;;8.45;3.97;;;9.40;98.80;;;;;;5095044;28;20219;-62
2022/02/02 11:25:48;;;;;;;8.15;3.50;;;9.40;98.20;;;;;;5095010;28;20223;-63
2022/02/02 11:28:33;;;;;;;11.30;3.85;;;9.40;98.40;;;;;;5094885;28;20232;-64
2022/02/02 11:31:12;;;;;;;8.00;3.83;;;9.40;98.60;;;;;;5095199;28;20603;-63
2022/02/02 11:33:44;;;;;;;6.13;3.40;;;9.50;98.50;;;;;;5095103;28;20967;-63
2022/02/02 11:36:21;;;;;;;9.07;4.10;;;9.50;98.40;;;;;;5095102;28;20666;-63
2022/02/02 11:38:51;;;;;;;7.93;3.00;;;9.50;98.20;;;;;;5094833;28;20215;-63
2022/02/02 11:41:50;;;;;;;8.10;3.30;;;9.50;97.50;;;;;;5094885;28;20235;-64
2022/02/02 11:44:33;;;;;;;8.35;3.22;;;9.40;97.10;;;;;;5095007;28;20244;-63
2022/02/02 11:47:08;;;;;;;10.50;3.85;;;9.40;97.40;;;;;;5094908;28;20227;-63
2022/02/02 11:49:51;;;;;;;10.30;2.80;;;9.40;97.40;;;;;;5094562;28;20319;-64
2022/02/02 11:52:41;;;;;;;9.68;2.58;;;9.40;97.60;;;;;;5094006;28;20694;-63
2022/02/02 11:55:43;;;;;;;5.32;2.75;;;9.40;96.80;;;;;;5094659;28;20239;-64
2022/02/02 11:58:17;;;;;;;9.85;3.60;;;9.40;97.00;;;;;;5094782;28;20233;-64
2022/02/02 12:00:56;;;;;;;7.13;4.03;;;9.40;96.60;;;;;;5094543;28;20231;-64
2022/02/02 12:03:48;;;;;;;5.53;3.40;;;9.40;96.70;;;;;;5094276;28;20985;-63
2022/02/02 12:09:09;;;;;;;7.65;2.85;;;9.40;97.10;;;;;;5086593;28;20219;-63
2022/02/02 12:49:00;;;;;;;3.42;1.83;;;9.10;97.60;;;;;;5054318;28;20221;-63
2022/02/02 12:57:01;;;;;;;6.55;2.17;;;9.30;96.90;;;;;;5093575;28;20220;-63
2022/02/02 12:59:42;;;;;;;2.35;1.77;;;9.40;97.00;;;;;;5093087;28;20298;-63
2022/02/02 13:02:11;;;;;;;4.07;2.10;;;9.40;96.30;;;;;;5093740;28;20220;-63
2022/02/02 13:04:40;;;;;;;3.42;1.58;;;9.40;96.00;;;;;;5093212;28;20765;-63
2022/02/02 13:07:12;;;;;;;5.70;2.25;;;9.50;95.80;;;;;;5093291;28;20220;-64
2022/02/02 13:09:41;;;;;;;3.90;2.30;;;9.50;95.10;;;;;;5093306;28;20238;-63
2022/02/02 13:12:22;;;;;;;4.05;1.80;;;9.40;94.80;;;;;;5093288;28;20226;-63
2022/02/02 13:18:02;;;;;;;5.97;1.85;;;9.40;94.40;;;;;;5089038;28;20223;-63
2022/02/02 13:20:44;;;;;;;6.47;1.63;;;9.50;94.10;;;;;;5092858;28;20242;-63
2022/02/02 13:23:19;;;;;;;4.90;1.48;;;9.50;94.00;;;;;;5093008;28;20219;-63
2022/02/02 13:25:51;;;;;;;2.75;1.85;;;9.60;94.20;;;;;;5092797;28;20229;-63
2022/02/02 13:28:47;;;;;;;8.10;2.17;;;9.60;94.10;;;;;;5093121;28;20247;-63
2022/02/02 13:31:34;;;;;;;3.05;1.65;;;9.70;93.40;;;;;;5092979;28;20239;-64
2022/02/02 13:34:13;;;;;;;2.42;1.20;;;9.70;93.50;;;;;;5093050;28;20247;-63
2022/02/02 13:36:56;;;;;;;11.18;3.22;;;9.80;93.30;;;;;;5092618;28;21204;-63
2022/02/02 13:42:43;;;;;;;7.63;1.80;;;9.90;93.50;;;;;;5092703;28;20273;-63
2022/02/02 13:45:43;;;;;;;2.20;1.05;;;9.90;94.40;;;;;;5092856;28;20302;-62
2022/02/02 13:57:00;;;;;;;4.78;1.70;;;9.90;93.40;;;;;;5092817;28;20579;-64
2022/02/02 14:05:16;;;;;;;2.95;1.20;;;9.80;90.60;;;;;;5130981;27;20301;-62
2022/02/02 14:07:52;;;;;;;2.45;1.30;;;9.80;88.20;;;;;;5130720;27;20244;-63
2022/02/02 14:10:36;;;;;;;3.10;2.30;;;9.70;88.10;;;;;;5137236;27;20240;-63
2022/02/02 14:32:13;;;;;;;6.53;3.08;;;9.40;86.70;;;;;;5151326;27;20220;-63
2022/02/02 14:34:41;;;;;;;4.25;2.70;;;9.40;87.20;;;;;;5150893;27;20226;-63
2022/02/02 14:37:15;;;;;;;7.70;1.80;;;9.40;87.50;;;;;;5151144;27;20237;-63
2022/02/02 14:39:51;;;;;;;3.22;1.30;;;9.30;87.30;;;;;;5150630;27;20222;-63
2022/02/02 14:42:22;;;;;;;3.35;1.10;;;9.30;88.20;;;;;;5151109;27;20330;-64
2022/02/02 14:44:49;;;;;;;2.10;1.15;;;9.40;88.20;;;;;;5150728;27;20666;-63
2022/02/02 14:47:22;;;;;;;2.42;1.65;;;9.40;88.30;;;;;;5149698;27;20218;-63
2022/02/02 14:50:01;;;;;;;3.92;1.20;;;9.40;88.70;;;;;;5141371;27;20301;-63
2022/02/02 14:52:36;;;;;;;2.53;1.23;;;9.30;88.60;;;;;;5150190;27;20222;-63
2022/02/02 15:26:11;;;;;;;4.10;2.70;;;9.20;91.30;;;;;;5136418;27;20698;-63
2022/02/02 15:28:33;;;;;;;7.18;3.58;;;9.20;91.80;;;;;;5135748;27;20233;-63
2022/02/02 15:31:03;;;;;;;5.65;2.65;;;9.10;92.00;;;;;;5136162;27;20275;-63
2022/02/02 15:33:32;;;;;;;6.13;3.75;;;9.10;92.30;;;;;;5135611;27;20232;-64
2022/02/02 15:36:14;;;;;;;2.85;2.40;;;9.10;92.70;;;;;;5136098;27;20230;-63
2022/02/02 15:38:45;;;;;;;10.80;2.67;;;9.00;92.90;;;;;;5135859;27;21454;-63
2022/02/02 15:41:19;;;;;;;6.20;2.17;;;9.00;93.10;;;;;;5135751;27;20299;-64
2022/02/02 15:43:56;;;;;;;5.30;2.35;;;8.90;93.10;;;;;;5135860;27;21179;-63
2022/02/02 15:54:51;;;;;;;4.40;3.05;;;8.80;94.00;;;;;;5135240;27;20229;-63
2022/02/02 16:00:31;;;;;;;6.40;2.20;;;8.70;94.40;;;;;;5135874;27;20233;-63
2022/02/02 16:03:07;;;;;;;5.65;2.33;;;8.70;94.40;;;;;;5134994;27;20317;-63
2022/02/02 16:05:42;;;;;;;4.68;2.85;;;8.70;94.50;;;;;;5135638;27;20214;-62
2022/02/02 16:08:10;;;;;;;4.30;2.40;;;8.70;94.50;;;;;;5135119;27;20229;-62
2022/02/02 16:10:59;;;;;;;11.27;3.00;;;8.70;94.80;;;;;;5135182;27;20225;-62
2022/02/02 16:13:35;;;;;;;5.40;2.53;;;8.60;94.80;;;;;;5135521;27;20230;-63
2022/02/02 16:16:12;;;;;;;11.57;2.40;;;8.60;94.90;;;;;;5135190;27;20210;-63
2022/02/02 16:18:44;;;;;;;9.93;2.95;;;8.60;95.20;;;;;;5134768;27;20755;-63
2022/02/02 16:32:35;;;;;;;5.90;2.55;;;8.60;95.60;;;;;;5134843;27;21598;-64
2022/02/02 16:35:30;;;;;;;6.82;2.72;;;8.60;95.40;;;;;;5134549;27;20226;-63
2022/02/02 16:38:00;;;;;;;6.55;2.25;;;8.60;95.60;;;;;;5134414;27;20214;-63
2022/02/02 16:40:34;;;;;;;6.57;2.80;;;8.50;95.80;;;;;;5134387;27;20222;-63
2022/02/02 16:43:13;;;;;;;6.05;3.17;;;8.50;95.60;;;;;;5134281;27;20224;-63
2022/02/02 16:45:41;;;;;;;9.43;2.40;;;8.50;95.70;;;;;;5134694;27;20218;-63
2022/02/02 16:48:09;;;;;;;8.45;3.35;;;8.50;95.70;;;;;;5134317;27;20848;-63
2022/02/02 16:50:38;;;;;;;9.20;5.05;;;8.50;95.80;;;;;;5134362;27;20708;-63
2022/02/02 16:53:10;;;;;;;6.53;3.65;;;8.50;96.00;;;;;;5134065;27;20271;-63
2022/02/02 16:55:46;;;;;;;8.70;3.22;;;8.50;95.90;;;;;;5134400;27;20229;-64
2022/02/02 17:31:37;;;;;;;12.82;4.35;;;8.20;97.20;;;;;;5090914;28;20227;-64
2022/02/02 17:34:13;;;;;;;11.10;4.15;;;8.20;97.20;;;;;;5105157;27;20313;-64
2022/02/02 17:36:45;;;;;;;8.60;4.20;;;8.20;97.30;;;;;;5112540;27;20720;-63
2022/02/02 17:39:14;;;;;;;7.63;5.03;;;8.20;97.40;;;;;;5113312;27;20215;-63
2022/02/02 17:56:30;;;;;;;11.35;4.30;;;8.30;97.40;;;;;;5133811;27;20229;-63
2022/02/02 18:12:52;;;;;;;9.25;5.35;;;8.30;97.40;;;;;;5133548;27;20679;-63
2022/02/02 18:16:08;;;;;;;7.47;4.90;;;8.30;97.50;;;;;;5133254;27;20649;-63
2022/02/02 18:18:46;;;;;;;10.48;5.05;;;8.30;97.60;;;;;;5133005;27;21015;-64
2022/02/02 18:21:16;;;;;;;10.75;5.15;;;8.30;97.80;;;;;;5132591;27;20233;-63
2022/02/02 18:23:49;;;;;;;6.82;3.80;;;8.30;98.10;;;;;;5133284;27;20228;-63
2022/02/02 18:26:22;;;;;;;16.63;5.70;;;8.30;98.30;;;;;;5132869;27;20226;-63
2022/02/02 18:28:55;;;;;;;10.20;4.97;;;8.30;98.30;;;;;;5133331;27;20215;-63
2022/02/02 18:31:37;;;;;;;6.20;3.92;;;8.30;98.40;;;;;;5132760;27;20873;-63
2022/02/02 18:34:13;;;;;;;7.07;3.55;;;8.20;98.50;;;;;;5132724;27;20344;-63
2022/02/02 18:36:50;;;;;;;6.47;3.35;;;8.20;98.70;;;;;;5133160;27;20218;-63
2022/02/02 18:48:13;;;;;;;6.15;3.65;;;8.10;99.60;;;;;;5125553;27;20672;-63
2022/02/02 18:50:59;;;;;;;7.35;3.13;;;8.00;99.60;;;;;;5136739;27;20624;-62
2022/02/02 18:53:51;;;;;;;6.53;3.20;;;8.00;99.80;;;;;;5136911;27;20310;-64
2022/02/02 18:56:34;;;;;;;14.48;4.55;;;7.90;99.80;;;;;;5137138;27;20313;-63
2022/02/02 18:59:12;;;;;;;7.90;4.35;;;7.90;99.70;;;;;;5136856;27;20664;-62
2022/02/02 19:01:46;;;;;;;10.52;3.75;;;7.90;99.90;;;;;;5136323;27;20214;-63
2022/02/02 19:04:36;;;;;;;4.32;2.70;;;7.90;99.80;;;;;;5136485;27;20279;-63
2022/02/02 19:30:54;;;;;;;10.73;4.50;;;8.00;99.80;;;;;;5136243;27;20785;-63
2022/02/02 19:37:47;;;;;;;5.28;3.67;;;7.90;99.70;;;;;;5115483;27;20389;-65
2022/02/02 19:40:20;;;;;;;10.65;3.92;;;7.90;99.90;;;;;;5115901;27;20239;-64
2022/02/02 19:56:56;;;;;;;5.63;3.80;;;7.80;99.90;;;;;;5114515;27;20264;-63
2022/02/02 20:07:52;;;;;;;8.48;3.40;;;7.80;99.90;;;;;;5112719;27;20302;-64
2022/02/02 20:10:39;;;;;;;9.38;3.90;;;7.80;99.90;;;;;;5114641;27;20327;-64
2022/02/02 20:13:06;;;;;;;8.85;4.03;;;7.80;99.90;;;;;;5114208;27;20234;-63
2022/02/02 20:15:38;;;;;;;9.50;4.82;;;7.80;99.90;;;;;;5114820;27;20692;-63
2022/02/02 20:18:07;;;;;;;6.50;4.05;;;7.80;99.90;;;;;;5114177;27;20255;-64
2022/02/02 20:20:38;;;;;;;5.60;3.50;;;7.90;99.90;;;;;;5114500;27;20279;-63
2022/02/02 20:23:06;;;;;;;8.13;3.78;;;7.90;99.90;;;;;;5130549;27;20695;-64
2022/02/02 20:25:35;;;;;;;10.80;3.92;;;7.90;99.90;;;;;;5135212;27;20580;-63
2022/02/02 20:28:09;;;;;;;5.57;2.88;;;7.90;99.90;;;;;;5134423;27;20298;-64
2022/02/02 20:30:39;;;;;;;7.43;3.05;;;7.90;99.90;;;;;;5135003;27;20225;-65
2022/02/02 20:33:07;;;;;;;5.38;2.97;;;8.00;99.90;;;;;;5134527;27;20218;-63
2022/02/02 20:35:34;;;;;;;8.02;3.72;;;7.90;99.90;;;;;;5134643;27;20222;-63
2022/02/02 20:38:01;;;;;;;6.85;2.92;;;7.90;99.90;;;;;;5134367;27;20253;-64
2022/02/02 20:40:29;;;;;;;7.97;3.55;;;7.90;99.90;;;;;;5134657;27;20259;-63
2022/02/02 20:42:59;;;;;;;6.28;3.30;;;7.90;99.90;;;;;;5134748;27;20237;-64
2022/02/02 21:05:10;;;;;;;7.40;3.25;;;7.80;99.90;;;;;;5119447;27;20214;-63
2022/02/02 21:07:54;;;;;;;5.30;3.08;;;7.80;99.90;;;;;;5129541;27;20748;-64
2022/02/02 21:10:25;;;;;;;5.75;2.85;;;7.70;99.90;;;;;;5133435;27;20234;-63
2022/02/02 21:15:38;;;;;;;4.95;2.72;;;7.70;99.90;;;;;;5119979;27;20331;-63
2022/02/02 21:18:09;;;;;;;7.65;3.95;;;7.70;99.90;;;;;;5133727;27;20232;-64
2022/02/02 21:20:46;;;;;;;9.45;3.55;;;7.70;99.90;;;;;;5133134;27;20580;-62
2022/02/02 21:23:27;;;;;;;7.30;2.67;;;7.60;99.90;;;;;;5132341;27;20230;-64
2022/02/02 21:26:16;;;;;;;5.60;2.65;;;7.70;99.90;;;;;;5133691;27;20221;-64
2022/02/02 21:28:43;;;;;;;5.82;2.58;;;7.60;99.90;;;;;;5121391;27;20294;-64
2022/02/02 21:31:12;;;;;;;9.57;3.28;;;7.60;99.80;;;;;;5133600;27;20306;-63
2022/02/02 21:33:39;;;;;;;5.68;2.22;;;7.60;99.90;;;;;;5133267;27;20298;-65
2022/02/02 21:36:12;;;;;;;5.97;2.22;;;7.60;99.90;;;;;;5133688;27;20237;-64